AAL1430 KCMH-KCLT
Flight info
| Callsign | AAL1430 |
|---|---|
| Flight time | 1h 3m |
| Altitude | 35000 |
| Route | KCMH DCT POBSE DCT OHIOS DCT LNDIZ PARQR4 KCLT |
| Aircraft | B38M/M-VGDW/C |
Departure
| Time | 2026-05-07 23:15 |
|---|---|
| Airport | John Glenn Columbus International Airport (KCMH) |
Arrival
| Time | 2026-05-08 00:18 |
|---|---|
| Airport | Charlotte Douglas International Airport (KCLT) |
| Time | Latitude | Longitude | Altitude | Speed | Heading |
|---|---|---|---|---|---|
| 2026-05-07 23:00 | 39.99654 | -82.88664 | 822 ft | 0 kts | 20° |
| 2026-05-07 23:04 | 39.99638 | -82.88671 | 818 ft | 2 kts | 18° |
| 2026-05-07 23:04 | 39.99623 | -82.88679 | 822 ft | 2 kts | 53° |
| 2026-05-07 23:05 | 39.99620 | -82.88688 | 821 ft | 0 kts | 95° |
| 2026-05-07 23:10 | 39.99619 | -82.88684 | 821 ft | 1 kts | 98° |
| 2026-05-07 23:11 | 39.99608 | -82.88647 | 820 ft | 10 kts | 108° |
| 2026-05-07 23:11 | 39.99593 | -82.88522 | 820 ft | 18 kts | 95° |
| 2026-05-07 23:11 | 39.99577 | -82.88354 | 817 ft | 13 kts | 115° |
| 2026-05-07 23:11 | 39.99551 | -82.88324 | 819 ft | 9 kts | 149° |
| 2026-05-07 23:12 | 39.99501 | -82.88208 | 820 ft | 19 kts | 97° |
| 2026-05-07 23:12 | 39.99492 | -82.88025 | 823 ft | 20 kts | 93° |
| 2026-05-07 23:12 | 39.99477 | -82.87843 | 825 ft | 20 kts | 111° |
| 2026-05-07 23:12 | 39.99394 | -82.87775 | 824 ft | 14 kts | 157° |
| 2026-05-07 23:13 | 39.99358 | -82.87660 | 824 ft | 15 kts | 95° |
| 2026-05-07 23:13 | 39.99351 | -82.87509 | 823 ft | 18 kts | 95° |
| 2026-05-07 23:13 | 39.99323 | -82.87340 | 821 ft | 19 kts | 137° |
| 2026-05-07 23:13 | 39.99187 | -82.87339 | 820 ft | 18 kts | 204° |
| 2026-05-07 23:14 | 39.99171 | -82.87481 | 820 ft | 28 kts | 274° |
| 2026-05-07 23:14 | 39.99207 | -82.88116 | 823 ft | 110 kts | 274° |
| 2026-05-07 23:14 | 39.99295 | -82.89365 | 856 ft | 167 kts | 275° |
| 2026-05-07 23:14 | 39.99329 | -82.90992 | 1361 ft | 183 kts | 270° |
| 2026-05-07 23:15 | 39.99136 | -82.92661 | 2047 ft | 191 kts | 256° |
| 2026-05-07 23:15 | 39.98583 | -82.94251 | 2692 ft | 190 kts | 241° |
| 2026-05-07 23:15 | 39.97758 | -82.95587 | 3069 ft | 187 kts | 235° |
| 2026-05-07 23:15 | 39.97025 | -82.97010 | 3264 ft | 201 kts | 241° |
| 2026-05-07 23:16 | 39.96240 | -82.98651 | 3495 ft | 223 kts | 241° |
| 2026-05-07 23:16 | 39.95392 | -83.00497 | 3589 ft | 249 kts | 242° |
| 2026-05-07 23:16 | 39.94493 | -83.02480 | 3992 ft | 257 kts | 243° |
| 2026-05-07 23:16 | 39.93574 | -83.04503 | 4432 ft | 261 kts | 243° |
| 2026-05-07 23:17 | 39.92657 | -83.06525 | 4890 ft | 265 kts | 242° |
| 2026-05-07 23:17 | 39.91708 | -83.08641 | 5019 ft | 278 kts | 243° |
| 2026-05-07 23:17 | 39.90709 | -83.10877 | 5032 ft | 292 kts | 243° |
| 2026-05-07 23:17 | 39.89672 | -83.13209 | 5032 ft | 303 kts | 243° |
| 2026-05-07 23:18 | 39.88648 | -83.15517 | 5742 ft | 288 kts | 243° |
| 2026-05-07 23:18 | 39.87491 | -83.17639 | 6116 ft | 292 kts | 228° |
| 2026-05-07 23:18 | 39.85814 | -83.19192 | 6295 ft | 303 kts | 208° |
| 2026-05-07 23:18 | 39.83769 | -83.19958 | 6362 ft | 310 kts | 189° |
| 2026-05-07 23:19 | 39.81619 | -83.19803 | 6381 ft | 312 kts | 169° |
| 2026-05-07 23:19 | 39.79700 | -83.18506 | 6433 ft | 315 kts | 137° |
| 2026-05-07 23:19 | 39.78475 | -83.16191 | 6639 ft | 309 kts | 118° |
| 2026-05-07 23:19 | 39.77314 | -83.13880 | 6868 ft | 303 kts | 128° |
| 2026-05-07 23:20 | 39.75971 | -83.11788 | 7069 ft | 300 kts | 131° |
| 2026-05-07 23:20 | 39.74629 | -83.09721 | 7250 ft | 299 kts | 129° |
| 2026-05-07 23:20 | 39.73349 | -83.07600 | 7418 ft | 296 kts | 128° |
| 2026-05-07 23:20 | 39.72131 | -83.05548 | 7740 ft | 283 kts | 129° |
| 2026-05-07 23:21 | 39.70912 | -83.03542 | 8077 ft | 283 kts | 129° |
| 2026-05-07 23:21 | 39.69682 | -83.01538 | 8397 ft | 284 kts | 129° |
| 2026-05-07 23:21 | 39.68458 | -82.99534 | 8735 ft | 284 kts | 129° |
| 2026-05-07 23:21 | 39.67234 | -82.97523 | 9071 ft | 284 kts | 129° |
| 2026-05-07 23:22 | 39.66008 | -82.95513 | 9411 ft | 284 kts | 129° |
| 2026-05-07 23:22 | 39.64781 | -82.93504 | 9758 ft | 283 kts | 129° |
| 2026-05-07 23:22 | 39.63574 | -82.91529 | 10074 ft | 283 kts | 129° |
| 2026-05-07 23:22 | 39.62334 | -82.89502 | 10394 ft | 283 kts | 129° |
| 2026-05-07 23:23 | 39.61129 | -82.87533 | 10707 ft | 283 kts | 130° |
| 2026-05-07 23:23 | 39.59891 | -82.85511 | 11029 ft | 282 kts | 130° |
| 2026-05-07 23:23 | 39.58688 | -82.83547 | 11343 ft | 282 kts | 130° |
| 2026-05-07 23:23 | 39.57464 | -82.81551 | 11573 ft | 285 kts | 130° |
| 2026-05-07 23:24 | 39.56204 | -82.79499 | 11584 ft | 296 kts | 130° |
| 2026-05-07 23:24 | 39.54895 | -82.77366 | 11701 ft | 301 kts | 130° |
| 2026-05-07 23:24 | 39.53607 | -82.75268 | 11863 ft | 303 kts | 130° |
| 2026-05-07 23:24 | 39.52291 | -82.73125 | 12008 ft | 305 kts | 130° |
| 2026-05-07 23:25 | 39.50970 | -82.70978 | 12174 ft | 306 kts | 130° |
| 2026-05-07 23:25 | 39.49638 | -82.68815 | 12333 ft | 307 kts | 130° |
| 2026-05-07 23:25 | 39.48303 | -82.66647 | 12496 ft | 309 kts | 130° |
| 2026-05-07 23:25 | 39.46962 | -82.64472 | 12656 ft | 309 kts | 131° |
| 2026-05-07 23:26 | 39.45418 | -82.62585 | 12824 ft | 304 kts | 154° |
| 2026-05-07 23:26 | 39.43470 | -82.61683 | 13002 ft | 293 kts | 180° |
| 2026-05-07 23:26 | 39.41472 | -82.61703 | 13175 ft | 287 kts | 191° |
| 2026-05-07 23:26 | 39.39483 | -82.61914 | 13337 ft | 287 kts | 192° |
| 2026-05-07 23:27 | 39.35493 | -82.62349 | 13643 ft | 289 kts | 192° |
| 2026-05-07 23:27 | 39.33479 | -82.62545 | 13792 ft | 290 kts | 192° |
| 2026-05-07 23:27 | 39.31465 | -82.62747 | 13932 ft | 291 kts | 193° |
| 2026-05-07 23:28 | 39.29445 | -82.62956 | 14074 ft | 291 kts | 193° |
| 2026-05-07 23:28 | 39.27422 | -82.63162 | 14214 ft | 292 kts | 193° |
| 2026-05-07 23:28 | 39.25397 | -82.63367 | 14351 ft | 292 kts | 193° |
| 2026-05-07 23:28 | 39.23374 | -82.63571 | 14484 ft | 292 kts | 193° |
| 2026-05-07 23:29 | 39.21351 | -82.63776 | 14629 ft | 292 kts | 193° |
| 2026-05-07 23:29 | 39.19325 | -82.63982 | 14762 ft | 292 kts | 193° |
| 2026-05-07 23:29 | 39.17297 | -82.64187 | 14903 ft | 292 kts | 194° |
| 2026-05-07 23:29 | 39.15270 | -82.64392 | 15039 ft | 292 kts | 194° |
| 2026-05-07 23:30 | 39.13243 | -82.64597 | 15174 ft | 292 kts | 194° |
| 2026-05-07 23:30 | 39.11218 | -82.64801 | 15592 ft | 291 kts | 195° |
| 2026-05-07 23:30 | 39.09198 | -82.65005 | 16282 ft | 293 kts | 195° |
| 2026-05-07 23:30 | 39.07138 | -82.65221 | 16754 ft | 302 kts | 196° |
| 2026-05-07 23:31 | 39.05015 | -82.65439 | 17267 ft | 310 kts | 196° |
| 2026-05-07 23:31 | 39.02851 | -82.65651 | 17865 ft | 314 kts | 196° |
| 2026-05-07 23:31 | 39.00655 | -82.65868 | 18473 ft | 317 kts | 197° |
| 2026-05-07 23:31 | 38.98448 | -82.66091 | 19023 ft | 320 kts | 197° |
| 2026-05-07 23:32 | 38.96214 | -82.66317 | 19569 ft | 323 kts | 197° |
| 2026-05-07 23:32 | 38.93966 | -82.66543 | 20109 ft | 326 kts | 197° |
| 2026-05-07 23:32 | 38.91698 | -82.66771 | 20666 ft | 328 kts | 197° |
| 2026-05-07 23:32 | 38.89408 | -82.67001 | 21207 ft | 331 kts | 198° |
| 2026-05-07 23:33 | 38.87106 | -82.67232 | 21716 ft | 334 kts | 198° |
| 2026-05-07 23:33 | 38.84777 | -82.67464 | 22264 ft | 337 kts | 197° |
| 2026-05-07 23:33 | 38.82371 | -82.67380 | 22819 ft | 357 kts | 186° |
| 2026-05-07 23:33 | 38.79887 | -82.66638 | 23355 ft | 377 kts | 173° |
| 2026-05-07 23:34 | 38.77418 | -82.65324 | 23836 ft | 387 kts | 169° |
| 2026-05-07 23:34 | 38.74942 | -82.63931 | 24259 ft | 391 kts | 169° |
| 2026-05-07 23:34 | 38.72478 | -82.62555 | 24660 ft | 393 kts | 170° |
| 2026-05-07 23:34 | 38.69925 | -82.61148 | 25112 ft | 395 kts | 170° |
| 2026-05-07 23:35 | 38.67387 | -82.59748 | 25530 ft | 398 kts | 170° |
| 2026-05-07 23:35 | 38.64837 | -82.58334 | 25900 ft | 401 kts | 170° |
| 2026-05-07 23:35 | 38.62302 | -82.56929 | 26320 ft | 404 kts | 171° |
| 2026-05-07 23:35 | 38.59683 | -82.55482 | 26739 ft | 406 kts | 171° |
| 2026-05-07 23:36 | 38.57113 | -82.54065 | 27135 ft | 409 kts | 171° |
| 2026-05-07 23:36 | 38.54462 | -82.52603 | 27543 ft | 411 kts | 171° |
| 2026-05-07 23:36 | 38.51832 | -82.51152 | 27925 ft | 414 kts | 171° |
| 2026-05-07 23:36 | 38.49177 | -82.49689 | 28301 ft | 416 kts | 171° |
| 2026-05-07 23:37 | 38.46509 | -82.48222 | 28689 ft | 419 kts | 171° |
| 2026-05-07 23:37 | 38.43834 | -82.46751 | 29075 ft | 421 kts | 172° |
| 2026-05-07 23:37 | 38.41129 | -82.45265 | 29433 ft | 424 kts | 172° |
| 2026-05-07 23:37 | 38.38410 | -82.43772 | 29788 ft | 426 kts | 172° |
| 2026-05-07 23:38 | 38.36602 | -82.42780 | 30027 ft | 428 kts | 172° |
| 2026-05-07 23:38 | 38.33858 | -82.41276 | 30335 ft | 431 kts | 172° |
| 2026-05-07 23:38 | 38.31100 | -82.39765 | 30633 ft | 433 kts | 172° |
| 2026-05-07 23:38 | 38.28326 | -82.38246 | 30942 ft | 435 kts | 172° |
| 2026-05-07 23:39 | 38.25533 | -82.36719 | 31265 ft | 438 kts | 172° |
| 2026-05-07 23:39 | 38.22728 | -82.35186 | 31571 ft | 440 kts | 172° |
| 2026-05-07 23:39 | 38.19914 | -82.33649 | 31869 ft | 441 kts | 172° |
| 2026-05-07 23:39 | 38.17082 | -82.32105 | 32177 ft | 444 kts | 172° |
| 2026-05-07 23:40 | 38.14241 | -82.30557 | 32499 ft | 446 kts | 172° |
| 2026-05-07 23:40 | 38.11379 | -82.28998 | 32813 ft | 448 kts | 173° |
| 2026-05-07 23:40 | 38.08504 | -82.27434 | 33126 ft | 451 kts | 173° |
| 2026-05-07 23:40 | 38.05619 | -82.25866 | 33425 ft | 453 kts | 173° |
| 2026-05-07 23:41 | 38.02713 | -82.24287 | 33750 ft | 455 kts | 173° |
| 2026-05-07 23:41 | 37.99798 | -82.22706 | 34049 ft | 458 kts | 173° |
| 2026-05-07 23:41 | 37.96863 | -82.21114 | 34306 ft | 460 kts | 172° |
| 2026-05-07 23:41 | 37.93910 | -82.19514 | 34565 ft | 462 kts | 173° |
| 2026-05-07 23:42 | 37.90943 | -82.17908 | 34804 ft | 465 kts | 173° |
| 2026-05-07 23:42 | 37.87968 | -82.16297 | 34974 ft | 465 kts | 173° |
| 2026-05-07 23:42 | 37.82054 | -82.13095 | 34967 ft | 460 kts | 173° |
| 2026-05-07 23:43 | 37.76177 | -82.09937 | 34972 ft | 459 kts | 173° |
| 2026-05-07 23:43 | 37.70298 | -82.06767 | 34969 ft | 459 kts | 173° |
| 2026-05-07 23:44 | 37.64411 | -82.03609 | 34976 ft | 462 kts | 174° |
| 2026-05-07 23:44 | 37.61413 | -82.02016 | 34988 ft | 473 kts | 174° |
| 2026-05-07 23:44 | 37.58352 | -82.00380 | 34984 ft | 484 kts | 173° |
| 2026-05-07 23:45 | 37.52060 | -81.96986 | 34986 ft | 494 kts | 173° |
| 2026-05-07 23:45 | 37.45723 | -81.93603 | 34811 ft | 496 kts | 173° |
| 2026-05-07 23:46 | 37.42532 | -81.91907 | 34330 ft | 499 kts | 173° |
| 2026-05-07 23:46 | 37.39335 | -81.90200 | 33962 ft | 501 kts | 173° |
| 2026-05-07 23:46 | 37.36124 | -81.88484 | 33560 ft | 501 kts | 173° |
| 2026-05-07 23:46 | 37.32926 | -81.86778 | 33180 ft | 499 kts | 173° |
| 2026-05-07 23:47 | 37.29735 | -81.85083 | 32815 ft | 496 kts | 173° |
| 2026-05-07 23:47 | 37.26569 | -81.83404 | 32487 ft | 494 kts | 173° |
| 2026-05-07 23:47 | 37.23406 | -81.81725 | 32147 ft | 492 kts | 172° |
| 2026-05-07 23:47 | 37.20261 | -81.80056 | 31844 ft | 490 kts | 172° |
| 2026-05-07 23:48 | 37.17169 | -81.78417 | 31451 ft | 487 kts | 173° |
| 2026-05-07 23:48 | 37.14007 | -81.76935 | 31117 ft | 470 kts | 180° |
| 2026-05-07 23:48 | 37.10888 | -81.76041 | 30780 ft | 450 kts | 188° |
| 2026-05-07 23:48 | 37.07883 | -81.75670 | 30454 ft | 431 kts | 195° |
| 2026-05-07 23:49 | 37.04942 | -81.75751 | 30117 ft | 418 kts | 200° |
| 2026-05-07 23:49 | 37.01996 | -81.76009 | 30037 ft | 432 kts | 200° |
| 2026-05-07 23:49 | 36.95863 | -81.76451 | 30027 ft | 439 kts | 199° |
| 2026-05-07 23:50 | 36.89778 | -81.76971 | 30009 ft | 437 kts | 201° |
| 2026-05-07 23:50 | 36.83715 | -81.77522 | 29348 ft | 438 kts | 200° |
| 2026-05-07 23:51 | 36.80671 | -81.77773 | 28741 ft | 438 kts | 199° |
| 2026-05-07 23:51 | 36.77638 | -81.78036 | 28192 ft | 436 kts | 199° |
| 2026-05-07 23:51 | 36.74658 | -81.78303 | 27665 ft | 435 kts | 199° |
| 2026-05-07 23:51 | 36.71641 | -81.78570 | 27109 ft | 434 kts | 198° |
| 2026-05-07 23:52 | 36.68621 | -81.78834 | 26572 ft | 436 kts | 198° |
| 2026-05-07 23:52 | 36.65598 | -81.79094 | 26299 ft | 435 kts | 197° |
| 2026-05-07 23:52 | 36.62589 | -81.79352 | 26008 ft | 431 kts | 197° |
| 2026-05-07 23:52 | 36.59619 | -81.79606 | 25820 ft | 423 kts | 197° |
| 2026-05-07 23:53 | 36.56713 | -81.79856 | 25726 ft | 414 kts | 197° |
| 2026-05-07 23:53 | 36.53886 | -81.80100 | 25425 ft | 400 kts | 197° |
| 2026-05-07 23:53 | 36.51133 | -81.80342 | 25050 ft | 394 kts | 197° |
| 2026-05-07 23:53 | 36.48414 | -81.80573 | 24676 ft | 392 kts | 195° |
| 2026-05-07 23:54 | 36.45656 | -81.80433 | 24196 ft | 403 kts | 185° |
| 2026-05-07 23:54 | 36.42893 | -81.79739 | 23970 ft | 403 kts | 176° |
| 2026-05-07 23:54 | 36.40242 | -81.78536 | 23864 ft | 413 kts | 166° |
| 2026-05-07 23:54 | 36.37673 | -81.76865 | 23368 ft | 418 kts | 162° |
| 2026-05-07 23:55 | 36.35130 | -81.75131 | 22639 ft | 416 kts | 161° |
| 2026-05-07 23:55 | 36.32606 | -81.73417 | 22134 ft | 411 kts | 162° |
| 2026-05-07 23:55 | 36.30106 | -81.71732 | 21656 ft | 407 kts | 162° |
| 2026-05-07 23:55 | 36.27627 | -81.70062 | 21143 ft | 404 kts | 161° |
| 2026-05-07 23:56 | 36.25170 | -81.68402 | 20636 ft | 401 kts | 161° |
| 2026-05-07 23:56 | 36.22725 | -81.66751 | 20132 ft | 398 kts | 161° |
| 2026-05-07 23:56 | 36.20303 | -81.65120 | 19605 ft | 395 kts | 161° |
| 2026-05-07 23:56 | 36.17899 | -81.63504 | 19102 ft | 393 kts | 160° |
| 2026-05-07 23:57 | 36.15496 | -81.61886 | 18600 ft | 391 kts | 160° |
| 2026-05-07 23:57 | 36.13122 | -81.60288 | 18145 ft | 389 kts | 160° |
| 2026-05-07 23:57 | 36.10753 | -81.58695 | 17632 ft | 386 kts | 159° |
| 2026-05-07 23:57 | 36.08404 | -81.57117 | 17114 ft | 383 kts | 159° |
| 2026-05-07 23:58 | 36.06089 | -81.55563 | 16920 ft | 376 kts | 159° |
| 2026-05-07 23:58 | 36.03778 | -81.54015 | 16907 ft | 377 kts | 159° |
| 2026-05-07 23:58 | 36.01473 | -81.52472 | 16906 ft | 376 kts | 159° |
| 2026-05-07 23:58 | 35.99180 | -81.50936 | 16910 ft | 376 kts | 159° |
| 2026-05-07 23:59 | 35.96871 | -81.49390 | 16891 ft | 376 kts | 159° |
| 2026-05-07 23:59 | 35.94617 | -81.47875 | 16857 ft | 362 kts | 159° |
| 2026-05-07 23:59 | 35.92433 | -81.46410 | 16868 ft | 355 kts | 160° |
| 2026-05-07 23:59 | 35.90263 | -81.44971 | 16866 ft | 354 kts | 160° |
| 2026-05-08 00:00 | 35.88099 | -81.43530 | 16877 ft | 353 kts | 160° |
| 2026-05-08 00:00 | 35.85952 | -81.42095 | 16875 ft | 352 kts | 160° |
| 2026-05-08 00:00 | 35.83789 | -81.40650 | 16836 ft | 352 kts | 160° |
| 2026-05-08 00:00 | 35.81664 | -81.39235 | 16487 ft | 352 kts | 160° |
| 2026-05-08 00:01 | 35.79517 | -81.37806 | 16080 ft | 350 kts | 160° |
| 2026-05-08 00:01 | 35.77408 | -81.36331 | 15704 ft | 350 kts | 156° |
| 2026-05-08 00:01 | 35.75321 | -81.34815 | 15331 ft | 346 kts | 159° |
| 2026-05-08 00:01 | 35.73229 | -81.33373 | 14956 ft | 344 kts | 159° |
| 2026-05-08 00:02 | 35.71158 | -81.31915 | 14593 ft | 342 kts | 158° |
| 2026-05-08 00:02 | 35.69111 | -81.30435 | 14257 ft | 340 kts | 157° |
| 2026-05-08 00:02 | 35.67079 | -81.28973 | 13871 ft | 338 kts | 158° |
| 2026-05-08 00:02 | 35.65053 | -81.27534 | 13491 ft | 335 kts | 158° |
| 2026-05-08 00:03 | 35.63042 | -81.26108 | 13104 ft | 332 kts | 158° |
| 2026-05-08 00:03 | 35.61055 | -81.24692 | 12701 ft | 329 kts | 158° |
| 2026-05-08 00:03 | 35.59084 | -81.23287 | 12340 ft | 326 kts | 157° |
| 2026-05-08 00:03 | 35.57133 | -81.21898 | 12001 ft | 322 kts | 156° |
| 2026-05-08 00:04 | 35.55271 | -81.20400 | 11926 ft | 318 kts | 154° |
| 2026-05-08 00:04 | 35.53402 | -81.18944 | 11924 ft | 318 kts | 155° |
| 2026-05-08 00:04 | 35.51531 | -81.17505 | 11922 ft | 318 kts | 155° |
| 2026-05-08 00:04 | 35.49672 | -81.16031 | 11935 ft | 318 kts | 154° |
| 2026-05-08 00:05 | 35.47822 | -81.14549 | 11934 ft | 317 kts | 154° |
| 2026-05-08 00:05 | 35.45973 | -81.13083 | 12004 ft | 316 kts | 154° |
| 2026-05-08 00:05 | 35.44113 | -81.11620 | 12005 ft | 318 kts | 154° |
| 2026-05-08 00:05 | 35.42256 | -81.10154 | 11975 ft | 318 kts | 154° |
| 2026-05-08 00:06 | 35.40353 | -81.08800 | 12001 ft | 311 kts | 168° |
| 2026-05-08 00:06 | 35.38294 | -81.08307 | 12007 ft | 299 kts | 183° |
| 2026-05-08 00:06 | 35.36231 | -81.08116 | 11842 ft | 297 kts | 185° |
| 2026-05-08 00:06 | 35.34168 | -81.07970 | 11586 ft | 296 kts | 185° |
| 2026-05-08 00:07 | 35.32109 | -81.07797 | 11336 ft | 296 kts | 184° |
| 2026-05-08 00:07 | 35.30086 | -81.07605 | 11091 ft | 296 kts | 183° |
| 2026-05-08 00:07 | 35.28035 | -81.07417 | 10849 ft | 294 kts | 183° |
| 2026-05-08 00:07 | 35.25999 | -81.07238 | 10611 ft | 293 kts | 183° |
| 2026-05-08 00:08 | 35.23966 | -81.07060 | 10371 ft | 292 kts | 183° |
| 2026-05-08 00:08 | 35.21942 | -81.06880 | 10133 ft | 291 kts | 182° |
| 2026-05-08 00:08 | 35.19927 | -81.06700 | 9878 ft | 290 kts | 182° |
| 2026-05-08 00:08 | 35.17920 | -81.06522 | 9606 ft | 288 kts | 182° |
| 2026-05-08 00:09 | 35.15927 | -81.06345 | 9333 ft | 287 kts | 183° |
| 2026-05-08 00:09 | 35.13933 | -81.06168 | 8993 ft | 287 kts | 183° |
| 2026-05-08 00:09 | 35.11947 | -81.05992 | 8703 ft | 286 kts | 182° |
| 2026-05-08 00:09 | 35.09969 | -81.05817 | 8436 ft | 285 kts | 182° |
| 2026-05-08 00:10 | 35.07995 | -81.05642 | 8173 ft | 284 kts | 182° |
| 2026-05-08 00:10 | 35.06027 | -81.05468 | 7910 ft | 283 kts | 182° |
| 2026-05-08 00:10 | 35.04070 | -81.05300 | 7638 ft | 282 kts | 182° |
| 2026-05-08 00:10 | 35.02108 | -81.05135 | 7363 ft | 282 kts | 182° |
| 2026-05-08 00:11 | 35.00151 | -81.04967 | 7113 ft | 281 kts | 180° |
| 2026-05-08 00:11 | 34.98294 | -81.04148 | 6848 ft | 295 kts | 147° |
| 2026-05-08 00:11 | 34.97022 | -81.02172 | 6593 ft | 304 kts | 114° |
| 2026-05-08 00:11 | 34.96695 | -80.99631 | 6338 ft | 306 kts | 89° |
| 2026-05-08 00:12 | 34.96849 | -80.97047 | 6082 ft | 305 kts | 83° |
| 2026-05-08 00:12 | 34.97102 | -80.94500 | 5868 ft | 300 kts | 82° |
| 2026-05-08 00:12 | 34.97638 | -80.92116 | 5752 ft | 286 kts | 56° |
| 2026-05-08 00:12 | 34.99010 | -80.90549 | 5685 ft | 265 kts | 19° |
| 2026-05-08 00:13 | 35.00718 | -80.90260 | 5603 ft | 241 kts | 343° |
| 2026-05-08 00:13 | 35.02254 | -80.90905 | 5483 ft | 229 kts | 330° |
| 2026-05-08 00:13 | 35.03690 | -80.91706 | 5311 ft | 226 kts | 333° |
| 2026-05-08 00:13 | 35.05118 | -80.92465 | 5166 ft | 219 kts | 333° |
| 2026-05-08 00:14 | 35.06412 | -80.93149 | 4868 ft | 188 kts | 333° |
| 2026-05-08 00:14 | 35.07562 | -80.93744 | 4377 ft | 172 kts | 339° |
| 2026-05-08 00:14 | 35.08671 | -80.94104 | 3904 ft | 161 kts | 350° |
| 2026-05-08 00:14 | 35.09737 | -80.94218 | 3384 ft | 146 kts | 356° |
| 2026-05-08 00:15 | 35.10699 | -80.94284 | 2997 ft | 133 kts | 356° |
| 2026-05-08 00:15 | 35.11625 | -80.94363 | 2959 ft | 133 kts | 356° |
| 2026-05-08 00:15 | 35.12515 | -80.94439 | 2954 ft | 129 kts | 355° |
| 2026-05-08 00:15 | 35.13412 | -80.94516 | 2937 ft | 126 kts | 356° |
| 2026-05-08 00:16 | 35.14299 | -80.94592 | 2646 ft | 126 kts | 356° |
| 2026-05-08 00:16 | 35.15154 | -80.94669 | 2327 ft | 123 kts | 357° |
| 2026-05-08 00:16 | 35.16012 | -80.94740 | 2043 ft | 122 kts | 356° |
| 2026-05-08 00:16 | 35.16866 | -80.94824 | 1711 ft | 125 kts | 356° |
| 2026-05-08 00:17 | 35.17728 | -80.94904 | 1434 ft | 123 kts | 359° |
| 2026-05-08 00:17 | 35.18615 | -80.94978 | 1183 ft | 133 kts | 359° |
| 2026-05-08 00:17 | 35.19506 | -80.95053 | 955 ft | 122 kts | 359° |
| 2026-05-08 00:17 | 35.20323 | -80.95112 | 753 ft | 114 kts | 359° |
| 2026-05-08 00:18 | 35.20998 | -80.95165 | 724 ft | 75 kts | 356° |
| 2026-05-08 00:18 | 35.21437 | -80.95203 | 722 ft | 50 kts | 355° |
| 2026-05-08 00:18 | 35.21735 | -80.95231 | 721 ft | 37 kts | 356° |
| 2026-05-08 00:18 | 35.21961 | -80.95186 | 719 ft | 29 kts | 26° |
| 2026-05-08 00:19 | 35.22056 | -80.95128 | 718 ft | 0 kts | 27° |
| 2026-05-08 00:19 | 35.22058 | -80.95127 | 718 ft | 1 kts | 26° |
| 2026-05-08 00:20 | 35.22098 | -80.95102 | 718 ft | 11 kts | 26° |
| 2026-05-08 00:20 | 35.22183 | -80.95070 | 719 ft | 13 kts | 11° |
| 2026-05-08 00:20 | 35.22223 | -80.94995 | 717 ft | 9 kts | 62° |
| 2026-05-08 00:20 | 35.22257 | -80.94915 | 719 ft | 11 kts | 68° |
| 2026-05-08 00:21 | 35.22255 | -80.94851 | 718 ft | 0 kts | 109° |